aviador You're here:

KDBQ Decoded Metar

DUBUQUE in IA, USA
Report Time2018-06-23 05:53:00
UTC Time2018-06-23 06:07:44
Flight Rules vfr VFR
Wind050° at 07 kt
W.Decomp.*RWY 36: 4.8 kt HW 5.1 kt RCW
RWY 13: 0.9 kt HW 6.9 kt LCW
W.Rank050° ranks 25
Current wind is below 050° avg. (7.8)
Visibility9999 m
Phenomena:N/A
Clouds:N/A
Expected CloudBase > 1,200 ft AGL from Temp-Dew spread
CeilingNone
Temp16°C (ISA +3)
Dew Point13°C (83% RH)
AAT14.4°C
QNH1008 hPa
Density Alt1,821 ft
Elevation1,077 ft
Report Wrong Elevation
Raw Report
KDBQ 230553Z AUTO 05007KT 10SM CLR 16/13 A2976 RMK AO2 SLP074
60000 T01560133 10194 20150 402280150 58008=

Extra information for KDBQ:More info

Metar Taf Metar & Taf Last 4 Metars F.Rules Stats Wind Profile Meteogram Temp Stats Airport Information Weather charts Add Link Nearby VenuesMetar ALERT Operation Metar Decoded Social comments

AIRNAV info for KDBQ